Time;durP1;ratioP1;P1;durP2;ratioP2;P2;SDS_P1;SDS_P2;PMS_P1;PMS_P2;Temp;Humidity;BMP_temperature;BMP_pressure;BME280_temperature;BME280_humidity;BME280_pressure;Samples;Min_cycle;Max_cycle;Signal;HPM_P1;HPM_P2
2023/05/31 00:02:08;;;;;;;7.55;3.45;;;;;;;21.38;55.89;99775.06;4448386;32;34403;-70
2023/05/31 00:04:36;;;;;;;8.93;5.15;;;;;;;21.66;55.12;99779.06;4444622;32;33725;-69
2023/05/31 00:07:05;;;;;;;7.97;3.60;;;;;;;21.75;54.92;99775.22;4445616;32;33964;-68
2023/05/31 00:09:32;;;;;;;5.80;3.47;;;;;;;21.57;55.61;99778.28;4440199;32;33877;-67
2023/05/31 00:12:00;;;;;;;10.18;3.33;;;;;;;21.61;55.83;99779.63;4443778;32;33347;-68
2023/05/31 00:14:28;;;;;;;13.23;4.25;;;;;;;21.82;54.69;99771.56;4445027;32;33785;-68
2023/05/31 00:16:55;;;;;;;5.65;3.28;;;;;;;21.96;54.07;99772.63;4445437;32;34429;-67
2023/05/31 00:19:26;;;;;;;6.40;3.60;;;;;;;21.68;55.23;99779.72;4442037;32;33825;-69
2023/05/31 00:21:54;;;;;;;8.75;4.10;;;;;;;21.86;53.94;99772.03;4446192;32;33452;-67
2023/05/31 00:24:21;;;;;;;9.00;4.53;;;;;;;21.89;53.76;99770.81;4446420;32;33369;-67
2023/05/31 00:26:49;;;;;;;7.53;3.65;;;;;;;21.73;53.83;99767.22;4444878;32;32094;-69
2023/05/31 00:29:16;;;;;;;6.70;3.45;;;;;;;21.97;53.30;99771.56;4445082;32;33943;-68
2023/05/31 00:31:44;;;;;;;13.27;4.18;;;;;;;21.93;52.97;99762.09;4443544;32;34495;-67
2023/05/31 00:34:12;;;;;;;7.15;3.58;;;;;;;21.92;52.39;99764.97;4445898;32;33822;-68
2023/05/31 00:36:40;;;;;;;7.65;3.33;;;;;;;22.02;51.61;99765.53;4445986;32;34565;-68
2023/05/31 00:39:08;;;;;;;9.15;3.35;;;;;;;21.93;52.28;99766.69;4445825;32;34087;-68
2023/05/31 00:41:36;;;;;;;10.23;3.55;;;;;;;22.08;50.68;99771.06;4445487;32;34775;-68
2023/05/31 00:44:03;;;;;;;6.35;3.60;;;;;;;22.23;49.64;99775.72;4449103;32;33470;-68
2023/05/31 00:46:32;;;;;;;5.87;3.60;;;;;;;22.15;49.79;99771.19;4445774;32;33950;-68
2023/05/31 00:49:00;;;;;;;7.30;3.30;;;;;;;22.07;49.38;99777.56;4442032;32;34293;-68
2023/05/31 00:51:30;;;;;;;6.20;2.83;;;;;;;22.26;48.42;99767.16;4441468;32;32225;-68
2023/05/31 00:53:59;;;;;;;12.63;3.45;;;;;;;22.12;49.68;99760.69;4447001;32;33832;-71
2023/05/31 00:56:28;;;;;;;4.12;2.60;;;;;;;22.02;50.73;99766.41;4441225;32;33827;-68
2023/05/31 00:58:56;;;;;;;8.18;3.12;;;;;;;22.16;49.79;99767.47;4446904;32;34024;-68
2023/05/31 01:01:32;;;;;;;7.37;3.47;;;;;;;22.02;49.54;99768.25;4447308;32;33532;-68
2023/05/31 01:04:02;;;;;;;6.45;3.47;;;;;;;22.21;49.44;99759.53;4447896;32;34026;-68
2023/05/31 01:06:35;;;;;;;4.68;3.12;;;;;;;22.17;49.30;99758.25;4448991;32;33143;-68
2023/05/31 01:09:05;;;;;;;6.10;3.78;;;;;;;22.18;49.53;99757.19;4447743;32;34903;-70
2023/05/31 01:11:45;;;;;;;6.85;3.05;;;;;;;21.47;50.67;99767.66;4442994;32;34296;-68
2023/05/31 01:14:54;;;;;;;8.93;3.08;;;;;;;22.05;50.01;99760.59;4447701;32;34855;-68
2023/05/31 01:17:37;;;;;;;4.65;2.65;;;;;;;21.18;46.52;99757.50;4421544;32;33581;-68
2023/05/31 01:20:08;;;;;;;5.25;2.97;;;;;;;21.88;47.77;99767.25;4446690;32;34130;-66
2023/05/31 01:22:47;;;;;;;5.55;3.20;;;;;;;21.84;46.80;99768.66;4444248;32;34728;-67
2023/05/31 01:25:46;;;;;;;6.75;3.30;;;;;;;21.82;47.90;99765.25;4447726;32;32509;-69
2023/05/31 01:28:14;;;;;;;10.95;3.12;;;;;;;22.09;45.81;99756.44;4444788;32;33992;-67
2023/05/31 01:30:44;;;;;;;5.32;2.75;;;;;;;21.93;48.09;99766.69;4443015;32;34331;-67
2023/05/31 01:33:12;;;;;;;5.10;2.47;;;;;;;20.86;50.32;99762.16;4438688;32;33137;-70
2023/05/31 01:35:40;;;;;;;6.37;2.97;;;;;;;21.06;51.04;99753.50;4445217;32;35031;-71
2023/05/31 01:38:07;;;;;;;5.28;2.53;;;;;;;20.86;49.43;99756.72;4441883;32;32782;-71
2023/05/31 01:40:35;;;;;;;5.90;2.62;;;;;;;20.94;47.07;99758.56;4440069;32;34294;-71
2023/05/31 01:43:04;;;;;;;6.40;3.15;;;;;;;21.72;46.15;99753.78;4442190;32;34628;-71
2023/05/31 01:45:32;;;;;;;6.75;2.80;;;;;;;21.77;46.60;99748.66;4434633;32;33948;-71
2023/05/31 01:48:05;;;;;;;6.32;2.35;;;;;;;21.94;46.17;99752.03;4449968;32;33115;-70
2023/05/31 01:50:35;;;;;;;7.57;2.78;;;;;;;21.94;47.55;99760.19;4442737;32;34192;-70
2023/05/31 01:53:06;;;;;;;10.80;2.92;;;;;;;21.69;47.22;99748.72;4443281;32;32770;-70
2023/05/31 01:55:34;;;;;;;7.45;2.62;;;;;;;21.55;46.64;99748.53;4448830;32;33962;-71
2023/05/31 01:58:02;;;;;;;5.53;2.65;;;;;;;21.84;46.55;99755.03;4448217;32;33929;-71
2023/05/31 02:00:30;;;;;;;4.35;2.50;;;;;;;21.52;45.82;99748.06;4447793;32;34145;-69
2023/05/31 02:02:59;;;;;;;3.37;1.98;;;;;;;21.84;45.48;99747.69;4445363;32;34051;-71
2023/05/31 02:05:27;;;;;;;6.05;2.70;;;;;;;22.02;45.30;99751.91;4450835;32;33827;-70
2023/05/31 02:07:55;;;;;;;6.62;2.90;;;;;;;21.73;45.92;99756.31;4447120;32;33642;-70
2023/05/31 02:10:23;;;;;;;8.48;3.53;;;;;;;21.90;44.66;99756.16;4448109;32;34688;-70
2023/05/31 02:12:53;;;;;;;7.80;2.58;;;;;;;21.92;44.86;99754.09;4448239;32;33543;-75
2023/05/31 02:15:23;;;;;;;5.60;3.08;;;;;;;22.12;44.75;99751.63;4448786;32;34802;-77
2023/05/31 02:17:51;;;;;;;4.70;2.47;;;;;;;22.24;44.82;99758.31;4438745;32;33821;-76
2023/05/31 02:20:18;;;;;;;11.98;3.10;;;;;;;21.39;46.92;99756.84;4446456;32;35057;-71
2023/05/31 02:22:47;;;;;;;7.57;2.92;;;;;;;21.89;47.23;99768.91;4449387;32;33590;-72
2023/05/31 02:25:17;;;;;;;5.47;2.65;;;;;;;22.01;46.64;99767.44;4450462;32;34710;-71
2023/05/31 02:27:45;;;;;;;3.90;1.67;;;;;;;21.86;45.62;99766.56;4448931;32;35098;-72
2023/05/31 02:30:12;;;;;;;6.70;3.15;;;;;;;22.04;44.27;99764.31;4438318;32;33713;-72
2023/05/31 02:32:43;;;;;;;6.93;2.42;;;;;;;22.10;43.50;99766.28;4445791;32;34752;-72
2023/05/31 02:35:11;;;;;;;5.68;3.08;;;;;;;22.25;44.67;99762.75;4450302;32;33649;-72
2023/05/31 02:37:39;;;;;;;5.47;2.95;;;;;;;22.23;44.13;99765.66;4448555;32;32522;-71
2023/05/31 02:40:08;;;;;;;7.22;2.85;;;;;;;21.97;44.64;99766.13;4449179;32;33974;-72
2023/05/31 02:42:39;;;;;;;5.95;2.10;;;;;;;22.04;44.27;99767.06;4449357;32;33423;-72
2023/05/31 02:45:08;;;;;;;5.37;2.90;;;;;;;22.09;44.21;99772.78;4450133;32;32775;-72
2023/05/31 02:47:37;;;;;;;6.05;2.55;;;;;;;22.10;44.75;99770.91;4449604;32;33933;-71
2023/05/31 02:50:07;;;;;;;5.47;2.25;;;;;;;21.66;47.17;99771.72;4436358;32;33862;-72
2023/05/31 02:52:38;;;;;;;6.10;2.35;;;;;;;22.09;44.40;99772.78;4452161;32;32758;-72
2023/05/31 02:55:07;;;;;;;7.75;2.70;;;;;;;22.16;45.44;99766.63;4454383;32;34821;-72
2023/05/31 02:57:37;;;;;;;6.50;2.83;;;;;;;22.18;43.43;99775.44;4440887;32;32769;-72
2023/05/31 03:00:10;;;;;;;8.80;2.78;;;;;;;22.00;42.91;99773.91;4451175;32;34107;-72
2023/05/31 03:02:39;;;;;;;9.15;2.45;;;;;;;21.73;45.61;99783.56;4453137;32;33667;-71
2023/05/31 03:05:11;;;;;;;5.68;2.25;;;;;;;21.71;43.10;99780.19;4454155;32;33377;-71
2023/05/31 03:07:38;;;;;;;4.82;2.37;;;;;;;22.06;43.77;99784.06;4442488;32;35193;-73
2023/05/31 03:10:07;;;;;;;6.37;2.72;;;;;;;22.26;43.67;99778.91;4444690;32;34803;-72
2023/05/31 03:12:34;;;;;;;8.13;2.67;;;;;;;21.40;46.61;99785.75;4452449;32;33508;-69
2023/05/31 03:15:04;;;;;;;5.03;2.62;;;;;;;21.39;42.88;99786.78;4449532;32;33946;-69
2023/05/31 03:17:32;;;;;;;10.80;2.75;;;;;;;22.17;43.16;99790.13;4447208;32;35124;-73
2023/05/31 03:19:59;;;;;;;5.53;2.35;;;;;;;22.37;42.85;99780.31;4441168;32;34116;-74
2023/05/31 03:22:27;;;;;;;4.93;2.75;;;;;;;22.45;42.86;99796.56;4437475;32;33404;-73
2023/05/31 03:24:54;;;;;;;5.40;2.53;;;;;;;22.48;42.83;99787.16;4448318;32;33477;-74
2023/05/31 03:27:22;;;;;;;6.12;3.00;;;;;;;22.36;44.23;99789.53;4453334;32;33976;-75
2023/05/31 03:29:51;;;;;;;5.28;2.65;;;;;;;22.37;43.99;99793.09;4451588;32;34919;-73
2023/05/31 03:32:18;;;;;;;6.57;3.00;;;;;;;22.40;43.34;99795.44;4450180;32;33532;-73
2023/05/31 03:34:46;;;;;;;8.70;3.60;;;;;;;22.42;42.21;99804.28;4448014;32;33838;-75
2023/05/31 03:37:14;;;;;;;10.10;2.37;;;;;;;22.40;43.76;99799.00;4449857;32;33987;-75
2023/05/31 03:39:42;;;;;;;5.10;2.65;;;;;;;22.42;44.22;99796.13;4448414;32;34182;-68
2023/05/31 03:42:10;;;;;;;5.00;2.58;;;;;;;22.49;43.17;99795.16;4450697;32;33557;-71
2023/05/31 03:44:37;;;;;;;3.60;2.40;;;;;;;21.96;45.74;99809.87;4450438;32;33500;-69
2023/05/31 03:47:06;;;;;;;5.30;2.90;;;;;;;22.34;44.01;99805.22;4452523;32;34000;-69
2023/05/31 03:49:33;;;;;;;4.05;1.98;;;;;;;22.32;44.34;99804.59;4450304;32;34011;-69
2023/05/31 03:52:01;;;;;;;5.03;2.28;;;;;;;22.40;43.86;99803.63;4449947;32;33504;-68
2023/05/31 03:54:30;;;;;;;7.10;2.72;;;;;;;22.24;44.03;99804.66;4452963;32;34042;-72
2023/05/31 03:56:57;;;;;;;4.07;2.47;;;;;;;22.32;44.05;99794.53;4453161;32;33623;-74
2023/05/31 03:59:25;;;;;;;3.90;1.92;;;;;;;22.10;45.71;99807.19;4449423;32;33945;-72
2023/05/31 04:01:53;;;;;;;7.62;2.53;;;;;;;22.11;45.23;99808.03;4451610;32;34810;-69
2023/05/31 04:04:21;;;;;;;4.12;1.90;;;;;;;22.33;44.55;99817.16;4451966;32;35379;-69
2023/05/31 04:06:48;;;;;;;5.97;2.55;;;;;;;21.96;45.74;99818.06;4445996;32;33778;-71
2023/05/31 04:09:16;;;;;;;4.97;2.40;;;;;;;21.91;45.45;99821.34;4448695;32;33130;-70
2023/05/31 04:11:45;;;;;;;5.85;2.58;;;;;;;22.07;44.98;99815.72;4438975;32;33607;-70
2023/05/31 04:14:12;;;;;;;6.30;2.20;;;;;;;21.88;46.01;99819.00;4452601;32;32545;-70
2023/05/31 04:16:40;;;;;;;3.50;1.85;;;;;;;22.17;44.40;99820.94;4447858;32;33785;-70
2023/05/31 04:19:08;;;;;;;6.93;2.97;;;;;;;22.27;44.95;99818.75;4447257;32;93310;-70
2023/05/31 04:21:36;;;;;;;5.68;2.45;;;;;;;22.17;45.62;99822.81;4443900;32;33527;-69
2023/05/31 04:24:04;;;;;;;8.60;2.80;;;;;;;22.48;44.66;99815.28;4445898;32;33673;-70
2023/05/31 04:26:33;;;;;;;4.00;2.08;;;;;;;22.36;44.41;99822.25;4452899;32;34019;-70
2023/05/31 04:29:00;;;;;;;5.03;2.28;;;;;;;22.44;43.61;99830.34;4448932;32;33914;-69
2023/05/31 04:31:28;;;;;;;4.12;1.98;;;;;;;22.45;43.38;99814.81;4442934;32;32401;-70
2023/05/31 04:34:17;;;;;;;3.55;1.85;;;;;;;22.38;43.32;99825.66;4449993;32;35082;-68
2023/05/31 04:36:48;;;;;;;6.45;2.55;;;;;;;22.70;43.80;99829.00;4441807;32;32549;-69
2023/05/31 04:39:22;;;;;;;8.07;2.53;;;;;;;22.75;43.48;99834.69;4451651;32;34358;-69
2023/05/31 04:41:50;;;;;;;6.32;2.85;;;;;;;21.94;44.58;99831.06;4444785;32;33589;-69
2023/05/31 04:44:18;;;;;;;5.20;2.15;;;;;;;22.41;43.62;99833.44;4444032;32;33784;-71
2023/05/31 04:46:47;;;;;;;4.35;2.15;;;;;;;22.74;42.16;99836.59;4442173;32;34086;-69
2023/05/31 04:49:15;;;;;;;9.95;2.67;;;;;;;22.67;42.58;99822.03;4449327;32;32886;-70
2023/05/31 04:51:43;;;;;;;4.62;2.28;;;;;;;22.94;42.79;99836.00;4447680;32;34794;-70
2023/05/31 04:54:10;;;;;;;11.55;2.87;;;;;;;22.49;43.54;99838.78;4452166;32;33573;-69
2023/05/31 04:56:37;;;;;;;8.98;2.45;;;;;;;22.92;42.75;99841.66;4447490;32;33874;-70
2023/05/31 04:59:07;;;;;;;9.05;2.28;;;;;;;22.88;42.23;99839.47;4452922;32;34099;-68
2023/05/31 05:01:35;;;;;;;5.40;2.40;;;;;;;23.03;41.97;99832.13;4444489;32;35117;-71
2023/05/31 05:04:04;;;;;;;7.72;2.53;;;;;;;23.10;41.44;99840.37;4446940;32;33641;-70
2023/05/31 05:06:33;;;;;;;5.85;2.33;;;;;;;23.21;41.75;99839.84;4443039;32;35096;-70
2023/05/31 05:09:01;;;;;;;5.22;2.33;;;;;;;23.17;43.72;99839.41;4451588;32;34065;-70
2023/05/31 05:11:29;;;;;;;5.50;2.25;;;;;;;23.20;43.64;99843.63;4449466;32;32056;-68
2023/05/31 05:13:57;;;;;;;5.62;2.50;;;;;;;23.27;42.73;99839.06;4436064;32;33603;-70
2023/05/31 05:16:25;;;;;;;5.37;2.58;;;;;;;23.27;41.65;99835.50;4442827;32;33997;-72
2023/05/31 05:18:53;;;;;;;6.68;2.95;;;;;;;23.26;41.35;99840.13;4448334;32;34049;-71
2023/05/31 05:21:23;;;;;;;14.25;2.92;;;;;;;23.38;41.48;99841.31;4450971;32;32139;-71
2023/05/31 05:23:50;;;;;;;3.90;2.22;;;;;;;23.42;42.20;99845.31;4451316;32;33876;-71
2023/05/31 05:26:18;;;;;;;5.97;2.87;;;;;;;23.47;41.93;99831.94;4450675;32;34033;-72
2023/05/31 05:28:46;;;;;;;6.20;3.05;;;;;;;23.58;41.99;99843.38;4450269;32;35120;-71
2023/05/31 05:31:13;;;;;;;4.47;2.65;;;;;;;23.57;40.94;99836.22;4442468;32;34924;-70
2023/05/31 05:33:41;;;;;;;5.75;2.58;;;;;;;23.66;40.72;99841.34;4451150;32;34932;-70
2023/05/31 05:36:09;;;;;;;4.78;2.10;;;;;;;23.70;41.81;99839.09;4448208;32;34955;-71
2023/05/31 05:38:37;;;;;;;8.05;2.72;;;;;;;23.68;42.70;99841.16;4441786;32;34084;-72
2023/05/31 05:41:10;;;;;;;9.20;2.22;;;;;;;23.46;40.08;99841.16;4438210;32;32160;-69
2023/05/31 05:43:42;;;;;;;4.90;2.40;;;;;;;23.46;40.44;99843.03;4451125;32;33794;-70
2023/05/31 05:46:09;;;;;;;10.07;2.37;;;;;;;23.53;39.55;99848.56;4448951;32;33826;-71
2023/05/31 05:48:37;;;;;;;6.45;2.80;;;;;;;23.48;40.01;99854.63;4453311;32;33391;-72
2023/05/31 05:51:05;;;;;;;6.15;2.53;;;;;;;23.53;40.71;99852.19;4448091;32;34809;-70
2023/05/31 05:53:33;;;;;;;4.70;2.40;;;;;;;23.72;39.70;99853.41;4453365;32;34851;-70
2023/05/31 05:56:02;;;;;;;5.75;2.28;;;;;;;22.93;40.86;99846.09;4452595;32;35052;-70
2023/05/31 05:58:30;;;;;;;5.60;3.20;;;;;;;22.61;40.65;99851.97;4451574;32;34874;-71
2023/05/31 06:00:59;;;;;;;9.07;2.67;;;;;;;22.86;40.02;99856.06;4447936;32;33014;-71
2023/05/31 06:03:30;;;;;;;4.75;1.90;;;;;;;22.61;39.30;99860.12;4450189;32;35036;-70
2023/05/31 06:05:58;;;;;;;4.53;2.22;;;;;;;22.93;40.43;99854.28;4451301;32;34071;-72
2023/05/31 06:08:25;;;;;;;8.88;2.75;;;;;;;23.07;40.49;99868.91;4450831;32;32881;-74
2023/05/31 06:10:53;;;;;;;4.45;2.12;;;;;;;22.72;40.26;99859.62;4451707;32;33603;-74
2023/05/31 06:13:21;;;;;;;5.97;2.70;;;;;;;22.38;40.45;99868.44;4452558;32;33978;-70
2023/05/31 06:15:49;;;;;;;4.60;2.35;;;;;;;22.74;40.59;99857.56;4452616;32;33694;-72
2023/05/31 06:18:16;;;;;;;8.70;2.67;;;;;;;22.95;39.96;99870.44;4451118;32;33895;-71
2023/05/31 06:20:44;;;;;;;5.72;2.42;;;;;;;23.09;39.68;99871.47;4448479;32;34331;-71
2023/05/31 06:23:13;;;;;;;6.87;2.72;;;;;;;22.92;40.20;99860.75;4445102;32;32572;-70
2023/05/31 06:25:41;;;;;;;5.07;2.10;;;;;;;22.92;40.52;99868.94;4446213;32;35692;-72
2023/05/31 06:28:10;;;;;;;4.70;2.37;;;;;;;23.36;39.96;99859.75;4441823;32;34114;-72
2023/05/31 06:30:39;;;;;;;8.15;2.45;;;;;;;23.51;38.50;99869.78;4442948;32;32756;-71
2023/05/31 06:33:07;;;;;;;7.20;2.45;;;;;;;23.59;38.02;99866.91;4447655;32;34880;-71
2023/05/31 06:35:35;;;;;;;13.65;2.95;;;;;;;23.64;38.75;99869.91;4452688;32;32954;-72
2023/05/31 06:38:03;;;;;;;6.32;2.65;;;;;;;23.78;37.49;99866.28;4449824;32;35983;-71
2023/05/31 06:40:31;;;;;;;7.95;2.70;;;;;;;23.27;38.68;99869.13;4450509;32;33684;-71
2023/05/31 06:42:59;;;;;;;4.82;2.37;;;;;;;23.81;37.46;99862.31;4451898;32;33904;-73
2023/05/31 06:45:28;;;;;;;5.20;2.72;;;;;;;23.55;38.11;99868.34;4453245;32;35179;-71
2023/05/31 06:47:58;;;;;;;5.25;2.53;;;;;;;24.15;37.94;99872.47;4443022;32;33986;-71
2023/05/31 06:50:32;;;;;;;4.60;2.62;;;;;;;23.97;37.98;99863.91;4447334;32;34607;-72
2023/05/31 06:53:02;;;;;;;6.32;2.40;;;;;;;24.23;38.58;99863.25;4448596;32;34623;-73
2023/05/31 06:55:30;;;;;;;7.25;4.03;;;;;;;23.92;38.53;99870.81;4449720;32;33996;-71
2023/05/31 06:57:59;;;;;;;4.47;2.45;;;;;;;23.99;36.75;99870.03;4447318;32;33848;-72
2023/05/31 07:00:29;;;;;;;6.80;3.00;;;;;;;23.78;38.05;99865.44;4437382;32;33323;-73
2023/05/31 07:02:56;;;;;;;5.53;1.73;;;;;;;23.70;39.58;99871.91;4445041;32;35517;-72
2023/05/31 07:05:25;;;;;;;6.00;2.45;;;;;;;24.19;37.36;99881.94;4450643;32;34419;-70
2023/05/31 07:07:53;;;;;;;5.45;2.67;;;;;;;23.42;37.38;99882.72;4451903;32;34909;-72
2023/05/31 07:10:21;;;;;;;7.35;2.58;;;;;;;23.28;38.80;99876.28;4448793;32;34781;-73
2023/05/31 07:12:50;;;;;;;5.10;2.50;;;;;;;23.46;38.35;99887.59;4449589;32;34950;-72
2023/05/31 07:15:18;;;;;;;5.40;2.97;;;;;;;23.89;37.01;99887.63;4453003;32;35115;-72
2023/05/31 07:17:46;;;;;;;5.87;3.10;;;;;;;23.58;38.19;99895.28;4453923;32;34996;-70
2023/05/31 07:20:14;;;;;;;12.48;2.55;;;;;;;23.75;38.18;99880.31;4452431;32;32396;-70
2023/05/31 07:22:42;;;;;;;5.80;2.42;;;;;;;23.66;38.81;99886.97;4448563;32;33796;-72
2023/05/31 07:25:09;;;;;;;5.05;2.40;;;;;;;22.80;40.80;99889.56;4452361;32;33817;-72
2023/05/31 07:27:36;;;;;;;9.32;3.20;;;;;;;23.01;40.02;99892.34;4449524;32;34998;-73
2023/05/31 07:30:05;;;;;;;7.25;3.00;;;;;;;23.34;39.34;99886.44;4437969;32;33658;-70
2023/05/31 07:32:33;;;;;;;3.47;1.83;;;;;;;23.38;39.72;99893.19;4442925;32;34862;-73
2023/05/31 07:35:00;;;;;;;7.32;2.42;;;;;;;23.10;39.05;99893.09;4452974;32;34761;-70
2023/05/31 07:37:31;;;;;;;6.12;3.22;;;;;;;23.28;40.11;99886.37;4448826;32;34081;-71
2023/05/31 07:39:59;;;;;;;8.57;3.55;;;;;;;23.65;39.41;99879.78;4453562;32;33585;-74
2023/05/31 07:42:28;;;;;;;5.00;1.83;;;;;;;23.46;39.60;99893.06;4449121;32;33242;-74
2023/05/31 07:44:56;;;;;;;4.45;2.50;;;;;;;23.31;39.28;99886.81;4445045;32;33794;-72
2023/05/31 07:47:24;;;;;;;5.82;2.47;;;;;;;23.16;40.82;99899.69;4448925;32;34060;-73
2023/05/31 07:49:51;;;;;;;6.00;3.00;;;;;;;23.08;40.63;99895.19;4448488;32;34702;-72
2023/05/31 07:52:21;;;;;;;5.10;2.45;;;;;;;23.53;39.08;99892.28;4448191;32;33779;-71
2023/05/31 07:54:49;;;;;;;9.88;2.62;;;;;;;23.53;39.62;99895.00;4445480;32;33980;-70
2023/05/31 07:57:17;;;;;;;6.50;2.80;;;;;;;23.67;39.95;99881.28;4452720;32;33890;-69
2023/05/31 07:59:45;;;;;;;7.90;2.60;;;;;;;24.00;39.09;99886.22;4449429;32;33734;-70
2023/05/31 08:02:13;;;;;;;3.33;2.37;;;;;;;23.79;38.94;99883.50;4444440;32;33713;-69
2023/05/31 08:04:41;;;;;;;9.50;3.03;;;;;;;23.65;39.05;99890.72;4449685;32;35158;-72
2023/05/31 08:07:08;;;;;;;5.95;2.83;;;;;;;23.67;39.85;99889.50;4445139;32;34107;-70
2023/05/31 08:09:36;;;;;;;4.35;2.62;;;;;;;24.16;38.83;99890.53;4440574;32;33407;-71
2023/05/31 08:12:04;;;;;;;3.67;2.10;;;;;;;24.13;38.71;99888.22;4446619;32;32867;-70
2023/05/31 08:14:31;;;;;;;6.82;3.22;;;;;;;23.97;37.53;99883.03;4442167;32;34083;-70
2023/05/31 08:16:59;;;;;;;6.57;3.05;;;;;;;23.79;38.34;99878.91;4451551;32;33869;-69
2023/05/31 08:19:27;;;;;;;5.28;2.35;;;;;;;24.36;38.02;99886.03;4445964;32;33504;-69
2023/05/31 08:21:54;;;;;;;10.82;2.70;;;;;;;24.40;36.91;99881.03;4447775;32;33607;-69
2023/05/31 08:24:22;;;;;;;8.20;2.60;;;;;;;24.35;37.35;99883.53;4446781;32;33694;-70
2023/05/31 08:26:50;;;;;;;9.85;2.72;;;;;;;24.64;35.84;99876.97;4447792;32;35167;-67
2023/05/31 08:29:17;;;;;;;7.43;2.75;;;;;;;24.31;36.22;99882.25;4446144;32;34688;-70
2023/05/31 08:31:45;;;;;;;4.95;2.50;;;;;;;24.19;35.82;99887.41;4447491;32;33925;-66
2023/05/31 08:34:13;;;;;;;8.13;2.83;;;;;;;24.60;36.21;99887.50;4439888;32;35230;-66
2023/05/31 08:36:40;;;;;;;5.87;2.60;;;;;;;24.56;36.16;99886.22;4442996;32;33978;-66
2023/05/31 08:39:08;;;;;;;6.43;2.28;;;;;;;24.45;36.22;99888.66;4439999;32;33867;-65
2023/05/31 08:41:45;;;;;;;5.62;1.98;;;;;;;24.76;35.02;99888.19;4440796;32;33728;-68
2023/05/31 08:44:14;;;;;;;5.43;2.53;;;;;;;24.70;34.96;99898.06;4443726;32;35155;-66
2023/05/31 08:46:45;;;;;;;8.80;3.30;;;;;;;25.02;35.07;99880.09;4445876;32;33881;-67
2023/05/31 08:49:15;;;;;;;5.15;2.65;;;;;;;24.80;35.73;99881.25;4448730;32;34337;-68
2023/05/31 08:51:45;;;;;;;5.35;2.67;;;;;;;24.59;36.13;99885.81;4438001;32;33719;-67
2023/05/31 08:54:13;;;;;;;5.50;2.37;;;;;;;24.95;34.62;99876.50;4440778;32;33749;-69
2023/05/31 08:56:41;;;;;;;5.90;2.67;;;;;;;25.19;35.67;99885.22;4447143;32;33885;-69
2023/05/31 08:59:16;;;;;;;4.22;2.33;;;;;;;25.26;35.48;99881.44;4440663;32;34363;-67
2023/05/31 09:01:44;;;;;;;7.87;2.70;;;;;;;25.02;35.30;99880.09;4441340;32;33695;-67
2023/05/31 09:04:13;;;;;;;7.22;2.53;;;;;;;25.40;34.88;99884.25;4442500;32;34005;-68
2023/05/31 09:06:41;;;;;;;6.70;2.75;;;;;;;25.24;34.83;99874.50;4447100;32;33802;-68
2023/05/31 09:09:08;;;;;;;5.30;2.67;;;;;;;24.99;35.13;99875.03;4439086;32;35555;-69
2023/05/31 09:11:40;;;;;;;6.55;3.12;;;;;;;25.14;35.89;99869.44;4445815;32;35050;-68
2023/05/31 09:14:10;;;;;;;9.02;3.65;;;;;;;25.28;34.66;99864.81;4442847;32;33623;-68
2023/05/31 09:16:38;;;;;;;5.50;2.22;;;;;;;25.54;35.08;99867.59;4438498;32;33331;-69
2023/05/31 09:19:06;;;;;;;4.78;2.45;;;;;;;25.68;34.20;99873.06;4440772;32;33647;-68
2023/05/31 09:21:40;;;;;;;6.35;2.55;;;;;;;25.41;35.12;99873.06;4445065;32;33809;-68
2023/05/31 09:24:10;;;;;;;;;;;;;;;25.23;35.12;99870.06;4443414;32;35035;-68
2023/05/31 09:26:48;;;;;;;7.07;2.85;;;;;;;25.68;34.76;99878.56;4445379;32;35584;-68
2023/05/31 09:29:17;;;;;;;5.50;2.65;;;;;;;25.21;35.43;99878.50;4442770;32;33360;-67
2023/05/31 09:31:45;;;;;;;6.53;2.85;;;;;;;25.60;35.14;99868.66;4443026;32;33985;-67
2023/05/31 09:34:27;;;;;;;7.93;2.60;;;;;;;25.55;34.35;99879.37;4445851;32;35136;-67
2023/05/31 09:36:58;;;;;;;10.30;4.07;;;;;;;25.88;34.22;99868.50;4446937;32;34198;-67
2023/05/31 09:39:26;;;;;;;7.03;3.25;;;;;;;25.98;33.45;99870.81;4450662;32;33189;-68
2023/05/31 09:41:56;;;;;;;8.15;3.42;;;;;;;26.30;35.24;99877.31;4446239;32;35030;-67
2023/05/31 09:44:27;;;;;;;7.82;2.92;;;;;;;26.61;33.00;99868.41;4441552;32;32545;-68
2023/05/31 09:46:56;;;;;;;10.13;2.67;;;;;;;26.49;33.17;99864.63;4449543;32;34622;-67
2023/05/31 09:49:24;;;;;;;9.75;3.30;;;;;;;26.87;33.68;99875.69;4444065;32;33675;-67
2023/05/31 09:51:52;;;;;;;7.30;3.08;;;;;;;26.49;33.62;99872.88;4445226;32;33458;-67
2023/05/31 09:54:25;;;;;;;11.20;3.10;;;;;;;26.70;32.48;99861.59;4443485;32;31860;-70
2023/05/31 09:56:55;;;;;;;9.27;3.87;;;;;;;27.02;31.87;99861.66;4447854;32;34412;-72
2023/05/31 09:59:22;;;;;;;6.25;2.70;;;;;;;26.86;32.10;99870.41;4443390;32;33668;-71
2023/05/31 10:01:50;;;;;;;7.60;2.65;;;;;;;27.10;32.38;99857.84;4442095;32;33832;-72
2023/05/31 10:04:19;;;;;;;7.62;2.95;;;;;;;27.13;32.06;99860.16;4444792;32;33949;-70
2023/05/31 10:06:47;;;;;;;7.35;3.37;;;;;;;27.57;32.75;99850.97;4443717;32;35087;-72
2023/05/31 10:09:15;;;;;;;6.45;3.72;;;;;;;27.51;31.79;99864.78;4449659;32;34644;-72
2023/05/31 10:11:47;;;;;;;13.70;3.05;;;;;;;27.79;30.96;99856.97;4445328;32;33737;-69
2023/05/31 10:14:25;;;;;;;9.48;3.60;;;;;;;27.86;30.83;99848.66;4437523;32;34085;-69
2023/05/31 10:16:59;;;;;;;13.00;3.35;;;;;;;27.95;31.16;99854.72;4454512;32;32509;-69
2023/05/31 10:19:49;;;;;;;5.53;3.10;;;;;;;27.28;32.09;99852.44;4441888;32;34325;-70
2023/05/31 10:22:17;;;;;;;7.60;3.15;;;;;;;27.23;32.55;99860.53;4441241;32;33616;-71
2023/05/31 10:24:51;;;;;;;10.23;3.70;;;;;;;27.50;31.22;99847.44;4446446;32;34451;-70
2023/05/31 10:27:38;;;;;;;9.40;3.25;;;;;;;27.51;31.64;99846.41;4440179;32;33845;-70
2023/05/31 10:30:08;;;;;;;7.10;3.12;;;;;;;28.13;30.89;99849.28;4440651;32;33499;-70
2023/05/31 10:32:45;;;;;;;7.68;3.37;;;;;;;27.46;31.45;99851.72;4442615;32;33802;-70
2023/05/31 10:35:13;;;;;;;6.85;3.17;;;;;;;28.28;31.15;99847.00;4450558;32;34635;-70
2023/05/31 10:37:41;;;;;;;8.05;3.72;;;;;;;28.14;30.29;99844.59;4445505;32;34249;-70
2023/05/31 10:40:09;;;;;;;4.87;2.80;;;;;;;28.33;30.54;99838.06;4437102;32;34527;-71
2023/05/31 10:42:53;;;;;;;7.12;3.47;;;;;;;28.45;29.92;99849.19;4446286;32;34908;-75
2023/05/31 10:45:36;;;;;;;8.37;3.50;;;;;;;28.67;30.15;99839.38;4451228;32;37173;-74
2023/05/31 10:48:20;;;;;;;6.05;2.85;;;;;;;28.62;29.35;99841.16;4438419;32;32516;-74
2023/05/31 10:50:56;;;;;;;8.03;3.30;;;;;;;28.89;29.67;99848.00;4438883;32;33700;-73
2023/05/31 10:53:34;;;;;;;6.62;3.08;;;;;;;28.99;29.90;99831.75;4439249;32;33714;-75
2023/05/31 10:56:04;;;;;;;10.52;3.92;;;;;;;28.71;30.92;99837.00;4448293;32;34209;-74
2023/05/31 10:58:39;;;;;;;7.25;3.17;;;;;;;28.82;29.50;99836.22;4449103;32;34181;-73
2023/05/31 11:01:09;;;;;;;8.02;3.85;;;;;;;29.24;29.10;99830.78;4451672;32;33624;-72
2023/05/31 11:03:54;;;;;;;10.00;3.67;;;;;;;28.22;30.36;99830.53;4449654;32;33310;-73
2023/05/31 11:06:27;;;;;;;6.05;3.08;;;;;;;28.29;31.59;99825.81;4449183;32;33615;-73
2023/05/31 11:08:58;;;;;;;9.80;3.78;;;;;;;28.72;30.52;99835.94;4451643;32;33978;-74
2023/05/31 11:11:32;;;;;;;9.52;3.92;;;;;;;28.38;30.58;99831.84;4446997;32;34847;-74
2023/05/31 11:14:16;;;;;;;6.40;3.12;;;;;;;28.23;30.24;99833.06;4446467;32;33218;-74
2023/05/31 11:16:45;;;;;;;9.53;3.73;;;;;;;29.09;28.88;99824.88;4441801;32;35085;-77
2023/05/31 11:19:15;;;;;;;6.72;3.50;;;;;;;29.16;29.28;99823.72;4446747;32;34831;-78
2023/05/31 11:21:49;;;;;;;7.68;3.70;;;;;;;28.84;29.00;99823.06;4443107;32;34426;-74
2023/05/31 11:24:33;;;;;;;8.43;3.55;;;;;;;28.93;29.04;99816.16;4444705;32;34876;-73
2023/05/31 11:27:01;;;;;;;8.32;4.62;;;;;;;28.72;29.17;99817.50;4447837;32;32849;-74
2023/05/31 11:29:47;;;;;;;11.00;3.45;;;;;;;29.29;29.96;99814.41;4442940;32;34329;-73
2023/05/31 11:32:15;;;;;;;7.03;3.80;;;;;;;29.41;29.96;99809.75;4448169;32;33151;-76
2023/05/31 11:35:00;;;;;;;7.05;3.97;;;;;;;29.59;28.89;99802.47;4445760;32;33778;-75
2023/05/31 11:37:32;;;;;;;6.67;3.37;;;;;;;29.57;27.86;99810.16;4449403;32;33033;-76
2023/05/31 11:40:01;;;;;;;6.70;3.53;;;;;;;29.68;28.73;99809.34;4446043;32;33891;-74
2023/05/31 11:42:31;;;;;;;7.18;3.22;;;;;;;29.09;29.19;99800.94;4445744;32;33426;-73
2023/05/31 11:45:10;;;;;;;5.47;3.05;;;;;;;28.81;29.18;99803.41;4453021;32;34251;-78
2023/05/31 11:48:08;;;;;;;8.00;3.33;;;;;;;28.51;29.46;99807.81;4448231;32;35501;-76